sensor_id;sensor_type;location;lat;lon;timestamp;temperature;humidity
12039;DHT22;6080;48.818;9.526;2023-05-20T03:00:50;10.90;99.90
12039;DHT22;6080;48.818;9.526;2023-05-20T03:03:16;10.90;99.90
12039;DHT22;6080;48.818;9.526;2023-05-20T03:05:41;10.90;99.90
12039;DHT22;6080;48.818;9.526;2023-05-20T03:08:11;11.00;99.90
12039;DHT22;6080;48.818;9.526;2023-05-20T03:10:38;11.00;99.90
12039;DHT22;6080;48.818;9.526;2023-05-20T03:15:33;11.10;99.90
12039;DHT22;6080;48.818;9.526;2023-05-20T03:18:00;11.10;99.90
12039;DHT22;6080;48.818;9.526;2023-05-20T03:20:26;11.10;99.90
12039;DHT22;6080;48.818;9.526;2023-05-20T03:22:53;11.20;99.90
12039;DHT22;6080;48.818;9.526;2023-05-20T03:25:21;11.10;99.90
12039;DHT22;6080;48.818;9.526;2023-05-20T03:27:47;11.20;99.90
12039;DHT22;6080;48.818;9.526;2023-05-20T03:30:13;11.20;99.90
12039;DHT22;6080;48.818;9.526;2023-05-20T03:32:38;11.10;99.90
12039;DHT22;6080;48.818;9.526;2023-05-20T03:35:05;11.10;99.90
12039;DHT22;6080;48.818;9.526;2023-05-20T03:37:31;11.00;99.90
12039;DHT22;6080;48.818;9.526;2023-05-20T03:39:57;10.90;99.90
12039;DHT22;6080;48.818;9.526;2023-05-20T03:42:23;10.90;99.90
12039;DHT22;6080;48.818;9.526;2023-05-20T03:44:48;10.90;99.90
12039;DHT22;6080;48.818;9.526;2023-05-20T03:47:14;10.90;99.90
12039;DHT22;6080;48.818;9.526;2023-05-20T03:49:40;10.90;99.90
12039;DHT22;6080;48.818;9.526;2023-05-20T03:52:06;10.90;99.90
12039;DHT22;6080;48.818;9.526;2023-05-20T03:54:32;10.90;99.90
12039;DHT22;6080;48.818;9.526;2023-05-20T03:56:59;10.90;99.90
12039;DHT22;6080;48.818;9.526;2023-05-20T03:59:26;10.90;99.90
12039;DHT22;6080;48.818;9.526;2023-05-20T04:01:52;10.90;99.90
12039;DHT22;6080;48.818;9.526;2023-05-20T04:04:18;10.90;99.90
12039;DHT22;6080;48.818;9.526;2023-05-20T04:06:43;11.00;99.90
12039;DHT22;6080;48.818;9.526;2023-05-20T04:09:10;11.00;99.90
12039;DHT22;6080;48.818;9.526;2023-05-20T04:11:36;11.00;99.90
12039;DHT22;6080;48.818;9.526;2023-05-20T04:14:02;11.10;99.90
12039;DHT22;6080;48.818;9.526;2023-05-20T04:16:28;11.20;99.90
12039;DHT22;6080;48.818;9.526;2023-05-20T04:18:54;11.20;99.90
12039;DHT22;6080;48.818;9.526;2023-05-20T04:21:20;11.20;99.90
12039;DHT22;6080;48.818;9.526;2023-05-20T04:23:46;11.30;99.90
12039;DHT22;6080;48.818;9.526;2023-05-20T04:26:12;11.40;99.90
12039;DHT22;6080;48.818;9.526;2023-05-20T04:28:38;11.40;99.90
12039;DHT22;6080;48.818;9.526;2023-05-20T04:31:06;11.50;99.90
12039;DHT22;6080;48.818;9.526;2023-05-20T04:33:32;11.60;99.90
12039;DHT22;6080;48.818;9.526;2023-05-20T04:36:03;11.70;99.90
12039;DHT22;6080;48.818;9.526;2023-05-20T04:38:30;11.80;99.90
12039;DHT22;6080;48.818;9.526;2023-05-20T04:40:57;11.90;99.90
12039;DHT22;6080;48.818;9.526;2023-05-20T04:43:24;12.00;99.90
12039;DHT22;6080;48.818;9.526;2023-05-20T04:45:51;12.10;99.90
12039;DHT22;6080;48.818;9.526;2023-05-20T04:48:18;12.20;99.90
12039;DHT22;6080;48.818;9.526;2023-05-20T04:50:44;12.20;99.90
12039;DHT22;6080;48.818;9.526;2023-05-20T04:53:10;12.30;99.90
12039;DHT22;6080;48.818;9.526;2023-05-20T04:55:36;12.30;99.90
12039;DHT22;6080;48.818;9.526;2023-05-20T04:58:03;12.50;99.90
12039;DHT22;6080;48.818;9.526;2023-05-20T05:00:29;12.70;99.90
12039;DHT22;6080;48.818;9.526;2023-05-20T05:02:55;12.80;99.90
12039;DHT22;6080;48.818;9.526;2023-05-20T05:05:21;12.90;99.90
12039;DHT22;6080;48.818;9.526;2023-05-20T05:07:46;13.10;99.90
12039;DHT22;6080;48.818;9.526;2023-05-20T05:10:12;13.30;99.90
12039;DHT22;6080;48.818;9.526;2023-05-20T05:12:40;13.90;99.90
12039;DHT22;6080;48.818;9.526;2023-05-20T05:15:06;14.20;99.90
12039;DHT22;6080;48.818;9.526;2023-05-20T05:17:32;14.80;99.90
12039;DHT22;6080;48.818;9.526;2023-05-20T05:19:58;15.40;99.90
12039;DHT22;6080;48.818;9.526;2023-05-20T05:22:23;15.80;99.90
12039;DHT22;6080;48.818;9.526;2023-05-20T05:24:49;16.30;99.90
12039;DHT22;6080;48.818;9.526;2023-05-20T05:27:15;16.40;99.90
12039;DHT22;6080;48.818;9.526;2023-05-20T05:29:41;16.40;99.90
12039;DHT22;6080;48.818;9.526;2023-05-20T05:32:07;16.40;99.90
12039;DHT22;6080;48.818;9.526;2023-05-20T05:34:32;16.60;99.90
12039;DHT22;6080;48.818;9.526;2023-05-20T05:36:58;17.20;99.90
12039;DHT22;6080;48.818;9.526;2023-05-20T05:39:24;17.70;99.90
12039;DHT22;6080;48.818;9.526;2023-05-20T05:41:49;18.10;99.90
12039;DHT22;6080;48.818;9.526;2023-05-20T05:44:15;18.40;99.90
12039;DHT22;6080;48.818;9.526;2023-05-20T05:46:41;18.60;99.90
12039;DHT22;6080;48.818;9.526;2023-05-20T05:49:07;18.80;99.90
12039;DHT22;6080;48.818;9.526;2023-05-20T05:51:32;19.00;99.90
12039;DHT22;6080;48.818;9.526;2023-05-20T05:53:58;19.20;99.90
12039;DHT22;6080;48.818;9.526;2023-05-20T05:56:24;19.50;99.90
12039;DHT22;6080;48.818;9.526;2023-05-20T05:58:49;19.80;99.90
12039;DHT22;6080;48.818;9.526;2023-05-20T06:01:15;19.80;99.90
12039;DHT22;6080;48.818;9.526;2023-05-20T06:03:41;20.00;99.90
12039;DHT22;6080;48.818;9.526;2023-05-20T06:06:07;20.20;99.90
12039;DHT22;6080;48.818;9.526;2023-05-20T06:08:33;20.50;99.90
12039;DHT22;6080;48.818;9.526;2023-05-20T06:10:58;20.90;99.90
12039;DHT22;6080;48.818;9.526;2023-05-20T06:13:24;20.80;99.90
12039;DHT22;6080;48.818;9.526;2023-05-20T06:15:50;20.80;99.90
12039;DHT22;6080;48.818;9.526;2023-05-20T06:18:16;20.40;99.90
12039;DHT22;6080;48.818;9.526;2023-05-20T06:20:42;20.10;99.90
12039;DHT22;6080;48.818;9.526;2023-05-20T06:23:07;19.90;99.90
12039;DHT22;6080;48.818;9.526;2023-05-20T06:25:33;19.60;99.90
12039;DHT22;6080;48.818;9.526;2023-05-20T06:27:59;19.30;99.90
12039;DHT22;6080;48.818;9.526;2023-05-20T06:30:25;18.80;99.90
12039;DHT22;6080;48.818;9.526;2023-05-20T06:32:50;18.70;99.90
12039;DHT22;6080;48.818;9.526;2023-05-20T06:35:16;18.50;99.90
12039;DHT22;6080;48.818;9.526;2023-05-20T06:37:42;18.20;99.90
12039;DHT22;6080;48.818;9.526;2023-05-20T06:40:09;18.00;99.90
12039;DHT22;6080;48.818;9.526;2023-05-20T06:42:35;17.90;99.90
12039;DHT22;6080;48.818;9.526;2023-05-20T06:45:01;17.70;99.90
12039;DHT22;6080;48.818;9.526;2023-05-20T06:47:26;17.40;99.90
12039;DHT22;6080;48.818;9.526;2023-05-20T06:49:52;17.40;99.90
12039;DHT22;6080;48.818;9.526;2023-05-20T06:52:18;17.20;99.90
12039;DHT22;6080;48.818;9.526;2023-05-20T06:54:44;16.90;99.90
12039;DHT22;6080;48.818;9.526;2023-05-20T06:57:09;16.90;99.90
12039;DHT22;6080;48.818;9.526;2023-05-20T06:59:36;17.00;99.90
12039;DHT22;6080;48.818;9.526;2023-05-20T07:02:02;17.10;99.90
12039;DHT22;6080;48.818;9.526;2023-05-20T07:04:28;17.20;99.90
12039;DHT22;6080;48.818;9.526;2023-05-20T07:06:54;17.10;99.90
12039;DHT22;6080;48.818;9.526;2023-05-20T07:09:20;17.20;99.90
12039;DHT22;6080;48.818;9.526;2023-05-20T07:11:46;17.30;99.90
12039;DHT22;6080;48.818;9.526;2023-05-20T07:14:12;17.40;99.90
12039;DHT22;6080;48.818;9.526;2023-05-20T07:16:38;17.90;99.90
12039;DHT22;6080;48.818;9.526;2023-05-20T07:19:04;18.70;99.90
12039;DHT22;6080;48.818;9.526;2023-05-20T07:21:30;18.90;99.90
12039;DHT22;6080;48.818;9.526;2023-05-20T07:23:56;18.50;99.90
12039;DHT22;6080;48.818;9.526;2023-05-20T07:26:22;18.30;99.90
12039;DHT22;6080;48.818;9.526;2023-05-20T07:28:47;18.30;99.90
12039;DHT22;6080;48.818;9.526;2023-05-20T07:31:13;18.30;99.90
12039;DHT22;6080;48.818;9.526;2023-05-20T07:33:39;18.30;99.90
12039;DHT22;6080;48.818;9.526;2023-05-20T07:36:05;18.70;99.90
12039;DHT22;6080;48.818;9.526;2023-05-20T07:38:30;18.90;99.90
12039;DHT22;6080;48.818;9.526;2023-05-20T07:40:57;19.40;99.90
12039;DHT22;6080;48.818;9.526;2023-05-20T07:43:22;19.60;99.90
12039;DHT22;6080;48.818;9.526;2023-05-20T07:45:48;20.00;99.90
12039;DHT22;6080;48.818;9.526;2023-05-20T07:48:15;19.80;99.90
12039;DHT22;6080;48.818;9.526;2023-05-20T07:50:41;19.50;99.90
12039;DHT22;6080;48.818;9.526;2023-05-20T07:53:06;19.40;99.90
12039;DHT22;6080;48.818;9.526;2023-05-20T07:55:33;19.60;99.90
12039;DHT22;6080;48.818;9.526;2023-05-20T07:57:59;19.60;99.90
12039;DHT22;6080;48.818;9.526;2023-05-20T08:00:25;19.50;99.90
12039;DHT22;6080;48.818;9.526;2023-05-20T08:02:51;20.10;99.90
12039;DHT22;6080;48.818;9.526;2023-05-20T08:05:17;20.60;99.90
12039;DHT22;6080;48.818;9.526;2023-05-20T08:07:43;20.70;99.90
12039;DHT22;6080;48.818;9.526;2023-05-20T08:10:09;21.50;99.90
12039;DHT22;6080;48.818;9.526;2023-05-20T08:12:34;22.20;99.90
12039;DHT22;6080;48.818;9.526;2023-05-20T08:15:00;22.30;99.90
12039;DHT22;6080;48.818;9.526;2023-05-20T08:17:26;22.50;99.90
12039;DHT22;6080;48.818;9.526;2023-05-20T08:19:51;22.70;99.90
12039;DHT22;6080;48.818;9.526;2023-05-20T08:22:17;22.20;99.90
12039;DHT22;6080;48.818;9.526;2023-05-20T08:24:43;21.80;99.90
12039;DHT22;6080;48.818;9.526;2023-05-20T08:27:09;22.00;99.90
12039;DHT22;6080;48.818;9.526;2023-05-20T08:29:34;21.60;99.90
12039;DHT22;6080;48.818;9.526;2023-05-20T08:32:00;21.60;99.90
12039;DHT22;6080;48.818;9.526;2023-05-20T08:34:26;21.70;99.90
12039;DHT22;6080;48.818;9.526;2023-05-20T08:36:52;22.00;99.90
12039;DHT22;6080;48.818;9.526;2023-05-20T08:39:18;22.40;99.90
12039;DHT22;6080;48.818;9.526;2023-05-20T08:41:45;22.80;99.90
12039;DHT22;6080;48.818;9.526;2023-05-20T08:44:11;22.80;99.90
12039;DHT22;6080;48.818;9.526;2023-05-20T08:46:38;22.10;99.90
12039;DHT22;6080;48.818;9.526;2023-05-20T08:49:05;21.70;99.90
12039;DHT22;6080;48.818;9.526;2023-05-20T08:51:32;21.20;99.90
12039;DHT22;6080;48.818;9.526;2023-05-20T08:53:58;21.30;99.90
12039;DHT22;6080;48.818;9.526;2023-05-20T08:56:25;21.90;99.90
12039;DHT22;6080;48.818;9.526;2023-05-20T08:58:52;21.70;99.90
12039;DHT22;6080;48.818;9.526;2023-05-20T09:01:20;21.70;99.90
12039;DHT22;6080;48.818;9.526;2023-05-20T09:03:48;21.50;99.90
12039;DHT22;6080;48.818;9.526;2023-05-20T09:06:16;22.00;99.90
12039;DHT22;6080;48.818;9.526;2023-05-20T09:08:48;22.10;99.90
12039;DHT22;6080;48.818;9.526;2023-05-20T09:11:15;22.50;99.90
12039;DHT22;6080;48.818;9.526;2023-05-20T09:13:40;22.10;99.90
12039;DHT22;6080;48.818;9.526;2023-05-20T09:16:09;21.40;99.90
12039;DHT22;6080;48.818;9.526;2023-05-20T09:18:38;21.30;99.90
12039;DHT22;6080;48.818;9.526;2023-05-20T09:21:05;21.60;99.90
12039;DHT22;6080;48.818;9.526;2023-05-20T09:23:36;21.50;99.90
12039;DHT22;6080;48.818;9.526;2023-05-20T09:26:03;21.60;99.90
12039;DHT22;6080;48.818;9.526;2023-05-20T09:28:29;22.50;99.90
12039;DHT22;6080;48.818;9.526;2023-05-20T09:30:58;23.00;99.90
12039;DHT22;6080;48.818;9.526;2023-05-20T09:33:27;23.20;99.90
12039;DHT22;6080;48.818;9.526;2023-05-20T09:36:07;22.90;99.90
12039;DHT22;6080;48.818;9.526;2023-05-20T09:38:36;22.70;99.90
12039;DHT22;6080;48.818;9.526;2023-05-20T09:41:09;22.90;99.90
12039;DHT22;6080;48.818;9.526;2023-05-20T09:43:40;23.20;99.90
12039;DHT22;6080;48.818;9.526;2023-05-20T09:46:06;23.40;99.90
12039;DHT22;6080;48.818;9.526;2023-05-20T09:48:35;23.40;99.90
12039;DHT22;6080;48.818;9.526;2023-05-20T09:51:04;23.60;99.90
12039;DHT22;6080;48.818;9.526;2023-05-20T09:53:30;24.10;99.80
12039;DHT22;6080;48.818;9.526;2023-05-20T09:55:56;23.60;99.90
12039;DHT22;6080;48.818;9.526;2023-05-20T09:58:22;23.70;99.90
12039;DHT22;6080;48.818;9.526;2023-05-20T10:00:50;24.10;99.60
12039;DHT22;6080;48.818;9.526;2023-05-20T10:03:17;24.50;98.60
12039;DHT22;6080;48.818;9.526;2023-05-20T10:05:51;24.30;98.80
12039;DHT22;6080;48.818;9.526;2023-05-20T10:08:38;24.90;97.70
12039;DHT22;6080;48.818;9.526;2023-05-20T10:11:23;25.10;97.70
12039;DHT22;6080;48.818;9.526;2023-05-20T10:16:53;23.90;97.20
12039;DHT22;6080;48.818;9.526;2023-05-20T10:19:29;24.00;97.40
12039;DHT22;6080;48.818;9.526;2023-05-20T10:22:00;24.10;97.90
12039;DHT22;6080;48.818;9.526;2023-05-20T10:24:33;24.00;97.60
12039;DHT22;6080;48.818;9.526;2023-05-20T10:27:07;24.20;97.40
12039;DHT22;6080;48.818;9.526;2023-05-20T10:29:54;24.70;95.80
12039;DHT22;6080;48.818;9.526;2023-05-20T10:32:32;24.70;96.00
12039;DHT22;6080;48.818;9.526;2023-05-20T10:35:06;24.90;95.40
12039;DHT22;6080;48.818;9.526;2023-05-20T10:37:41;25.00;94.70
12039;DHT22;6080;48.818;9.526;2023-05-20T10:40:11;24.80;94.30
12039;DHT22;6080;48.818;9.526;2023-05-20T10:42:38;24.70;95.00
12039;DHT22;6080;48.818;9.526;2023-05-20T10:45:05;25.30;94.50
12039;DHT22;6080;48.818;9.526;2023-05-20T10:47:31;25.30;93.80
12039;DHT22;6080;48.818;9.526;2023-05-20T10:49:57;25.80;93.50
12039;DHT22;6080;48.818;9.526;2023-05-20T10:52:23;25.80;93.30
12039;DHT22;6080;48.818;9.526;2023-05-20T10:57:18;27.30;92.30
12039;DHT22;6080;48.818;9.526;2023-05-20T10:59:43;27.70;90.00
12039;DHT22;6080;48.818;9.526;2023-05-20T11:02:10;26.90;89.20
12039;DHT22;6080;48.818;9.526;2023-05-20T11:04:38;26.60;89.00
12039;DHT22;6080;48.818;9.526;2023-05-20T11:07:03;25.60;90.40
12039;DHT22;6080;48.818;9.526;2023-05-20T11:09:29;25.60;90.70
12039;DHT22;6080;48.818;9.526;2023-05-20T11:11:56;26.00;90.10
12039;DHT22;6080;48.818;9.526;2023-05-20T11:14:22;25.90;90.10
12039;DHT22;6080;48.818;9.526;2023-05-20T11:16:52;25.60;91.00
12039;DHT22;6080;48.818;9.526;2023-05-20T11:19:18;25.10;91.40
12039;DHT22;6080;48.818;9.526;2023-05-20T11:21:45;25.40;90.60
12039;DHT22;6080;48.818;9.526;2023-05-20T11:24:11;25.70;90.30
12039;DHT22;6080;48.818;9.526;2023-05-20T11:26:38;26.10;90.00
12039;DHT22;6080;48.818;9.526;2023-05-20T11:29:04;26.30;88.20
12039;DHT22;6080;48.818;9.526;2023-05-20T11:31:30;26.30;87.70
12039;DHT22;6080;48.818;9.526;2023-05-20T11:33:59;26.50;86.40
12039;DHT22;6080;48.818;9.526;2023-05-20T11:36:28;26.80;86.80
12039;DHT22;6080;48.818;9.526;2023-05-20T11:38:59;27.20;84.30
12039;DHT22;6080;48.818;9.526;2023-05-20T11:41:26;26.60;84.60
12039;DHT22;6080;48.818;9.526;2023-05-20T11:43:59;26.00;85.80
12039;DHT22;6080;48.818;9.526;2023-05-20T11:46:26;26.00;85.50
12039;DHT22;6080;48.818;9.526;2023-05-20T11:48:55;25.70;86.40
12039;DHT22;6080;48.818;9.526;2023-05-20T11:51:28;25.80;88.00
12039;DHT22;6080;48.818;9.526;2023-05-20T11:54:01;26.60;85.60
12039;DHT22;6080;48.818;9.526;2023-05-20T11:56:32;27.80;83.80
12039;DHT22;6080;48.818;9.526;2023-05-20T11:58:59;28.10;79.90
12039;DHT22;6080;48.818;9.526;2023-05-20T12:01:26;27.60;82.30
12039;DHT22;6080;48.818;9.526;2023-05-20T12:03:55;27.30;81.40
12039;DHT22;6080;48.818;9.526;2023-05-20T12:06:20;26.60;81.20
12039;DHT22;6080;48.818;9.526;2023-05-20T12:08:46;26.10;82.60
12039;DHT22;6080;48.818;9.526;2023-05-20T12:11:12;25.60;84.00
12039;DHT22;6080;48.818;9.526;2023-05-20T12:13:38;25.40;85.70
12039;DHT22;6080;48.818;9.526;2023-05-20T12:16:04;25.30;85.60
12039;DHT22;6080;48.818;9.526;2023-05-20T12:18:31;25.00;87.60
12039;DHT22;6080;48.818;9.526;2023-05-20T12:20:58;24.80;86.00
12039;DHT22;6080;48.818;9.526;2023-05-20T12:23:24;25.00;85.70
12039;DHT22;6080;48.818;9.526;2023-05-20T12:25:49;25.40;85.40
12039;DHT22;6080;48.818;9.526;2023-05-20T12:28:16;25.70;85.90
12039;DHT22;6080;48.818;9.526;2023-05-20T12:30:42;25.60;85.20
12039;DHT22;6080;48.818;9.526;2023-05-20T12:33:08;25.60;83.70
12039;DHT22;6080;48.818;9.526;2023-05-20T12:35:39;25.50;84.90
12039;DHT22;6080;48.818;9.526;2023-05-20T12:38:05;25.30;86.00
12039;DHT22;6080;48.818;9.526;2023-05-20T12:40:32;24.90;88.30
12039;DHT22;6080;48.818;9.526;2023-05-20T12:43:02;24.60;87.40
12039;DHT22;6080;48.818;9.526;2023-05-20T12:45:28;24.30;89.40
12039;DHT22;6080;48.818;9.526;2023-05-20T12:47:55;24.60;89.10
12039;DHT22;6080;48.818;9.526;2023-05-20T12:50:21;24.70;88.90
12039;DHT22;6080;48.818;9.526;2023-05-20T12:52:47;24.90;87.60
12039;DHT22;6080;48.818;9.526;2023-05-20T12:55:13;25.40;87.60
12039;DHT22;6080;48.818;9.526;2023-05-20T12:57:39;26.60;86.90
12039;DHT22;6080;48.818;9.526;2023-05-20T13:00:07;27.60;81.90
12039;DHT22;6080;48.818;9.526;2023-05-20T13:02:33;27.60;80.60
12039;DHT22;6080;48.818;9.526;2023-05-20T13:04:59;27.70;79.00
12039;DHT22;6080;48.818;9.526;2023-05-20T13:07:24;28.00;78.20
12039;DHT22;6080;48.818;9.526;2023-05-20T13:09:51;28.00;79.10
12039;DHT22;6080;48.818;9.526;2023-05-20T13:12:17;28.70;77.10
12039;DHT22;6080;48.818;9.526;2023-05-20T13:14:43;28.20;76.70
12039;DHT22;6080;48.818;9.526;2023-05-20T13:17:11;28.20;78.60
12039;DHT22;6080;48.818;9.526;2023-05-20T13:19:37;27.70;76.70
12039;DHT22;6080;48.818;9.526;2023-05-20T13:22:03;27.60;76.40
12039;DHT22;6080;48.818;9.526;2023-05-20T13:24:29;27.40;78.40
12039;DHT22;6080;48.818;9.526;2023-05-20T13:26:54;27.40;77.30
12039;DHT22;6080;48.818;9.526;2023-05-20T13:29:20;26.60;77.60
12039;DHT22;6080;48.818;9.526;2023-05-20T13:31:46;25.80;79.10
12039;DHT22;6080;48.818;9.526;2023-05-20T13:34:12;26.70;77.70
12039;DHT22;6080;48.818;9.526;2023-05-20T13:36:38;28.10;75.00
12039;DHT22;6080;48.818;9.526;2023-05-20T13:39:05;28.00;73.70
12039;DHT22;6080;48.818;9.526;2023-05-20T13:41:31;27.80;75.80
12039;DHT22;6080;48.818;9.526;2023-05-20T13:43:57;27.70;75.70
12039;DHT22;6080;48.818;9.526;2023-05-20T13:46:23;27.20;76.70
12039;DHT22;6080;48.818;9.526;2023-05-20T13:48:49;26.40;79.00
12039;DHT22;6080;48.818;9.526;2023-05-20T13:51:15;25.70;80.30
12039;DHT22;6080;48.818;9.526;2023-05-20T13:53:41;25.30;81.80
12039;DHT22;6080;48.818;9.526;2023-05-20T13:56:06;25.20;82.20
12039;DHT22;6080;48.818;9.526;2023-05-20T13:58:36;25.10;82.40
12039;DHT22;6080;48.818;9.526;2023-05-20T14:01:02;25.10;82.90
12039;DHT22;6080;48.818;9.526;2023-05-20T14:03:32;25.20;82.10
12039;DHT22;6080;48.818;9.526;2023-05-20T14:05:59;25.40;82.90
12039;DHT22;6080;48.818;9.526;2023-05-20T14:08:25;25.70;82.10
12039;DHT22;6080;48.818;9.526;2023-05-20T14:10:51;26.40;79.30
12039;DHT22;6080;48.818;9.526;2023-05-20T14:13:22;27.00;76.30
12039;DHT22;6080;48.818;9.526;2023-05-20T14:15:48;27.00;77.10
12039;DHT22;6080;48.818;9.526;2023-05-20T14:18:16;27.10;77.60
12039;DHT22;6080;48.818;9.526;2023-05-20T14:20:42;28.00;75.80
12039;DHT22;6080;48.818;9.526;2023-05-20T14:23:08;28.70;73.00
12039;DHT22;6080;48.818;9.526;2023-05-20T14:25:34;29.00;71.80
12039;DHT22;6080;48.818;9.526;2023-05-20T14:27:59;28.50;70.80
12039;DHT22;6080;48.818;9.526;2023-05-20T14:30:25;27.90;72.50
12039;DHT22;6080;48.818;9.526;2023-05-20T14:32:51;27.60;72.30
12039;DHT22;6080;48.818;9.526;2023-05-20T14:35:17;27.70;72.60
12039;DHT22;6080;48.818;9.526;2023-05-20T14:37:43;27.50;72.70
12039;DHT22;6080;48.818;9.526;2023-05-20T14:40:09;28.60;72.30
12039;DHT22;6080;48.818;9.526;2023-05-20T14:42:35;29.10;69.50
12039;DHT22;6080;48.818;9.526;2023-05-20T14:45:02;27.90;71.40
12039;DHT22;6080;48.818;9.526;2023-05-20T14:47:28;26.80;75.10
12039;DHT22;6080;48.818;9.526;2023-05-20T14:49:55;26.80;74.70
12039;DHT22;6080;48.818;9.526;2023-05-20T14:52:21;27.20;72.80
12039;DHT22;6080;48.818;9.526;2023-05-20T14:54:48;27.50;72.50
12039;DHT22;6080;48.818;9.526;2023-05-20T14:57:14;27.70;71.10
12039;DHT22;6080;48.818;9.526;2023-05-20T14:59:41;27.60;72.10
12039;DHT22;6080;48.818;9.526;2023-05-20T15:02:07;27.40;73.00
12039;DHT22;6080;48.818;9.526;2023-05-20T15:04:33;28.00;72.50
12039;DHT22;6080;48.818;9.526;2023-05-20T15:06:59;28.40;73.10
12039;DHT22;6080;48.818;9.526;2023-05-20T15:09:25;29.20;70.30
12039;DHT22;6080;48.818;9.526;2023-05-20T15:11:51;29.60;68.30
12039;DHT22;6080;48.818;9.526;2023-05-20T15:14:17;28.70;70.00
12039;DHT22;6080;48.818;9.526;2023-05-20T15:16:43;27.90;72.80
12039;DHT22;6080;48.818;9.526;2023-05-20T15:19:10;27.70;72.30
12039;DHT22;6080;48.818;9.526;2023-05-20T15:21:36;27.50;73.60
12039;DHT22;6080;48.818;9.526;2023-05-20T15:24:02;27.60;73.70
12039;DHT22;6080;48.818;9.526;2023-05-20T15:26:29;27.20;74.50
12039;DHT22;6080;48.818;9.526;2023-05-20T15:28:55;26.80;75.70
12039;DHT22;6080;48.818;9.526;2023-05-20T15:31:22;26.40;77.30
12039;DHT22;6080;48.818;9.526;2023-05-20T15:33:48;26.30;76.80
12039;DHT22;6080;48.818;9.526;2023-05-20T15:36:13;26.60;77.20
12039;DHT22;6080;48.818;9.526;2023-05-20T15:38:39;27.20;75.60
12039;DHT22;6080;48.818;9.526;2023-05-20T15:41:05;27.70;73.90
12039;DHT22;6080;48.818;9.526;2023-05-20T15:43:31;28.10;72.50
12039;DHT22;6080;48.818;9.526;2023-05-20T15:45:57;27.60;72.40
12039;DHT22;6080;48.818;9.526;2023-05-20T15:48:22;27.10;73.80
12039;DHT22;6080;48.818;9.526;2023-05-20T15:50:48;27.00;75.60
12039;DHT22;6080;48.818;9.526;2023-05-20T15:53:14;26.80;74.70
12039;DHT22;6080;48.818;9.526;2023-05-20T15:55:40;26.20;75.40
12039;DHT22;6080;48.818;9.526;2023-05-20T15:58:06;25.70;77.30
12039;DHT22;6080;48.818;9.526;2023-05-20T16:00:32;25.40;76.20
12039;DHT22;6080;48.818;9.526;2023-05-20T16:02:58;25.10;75.80
12039;DHT22;6080;48.818;9.526;2023-05-20T16:05:23;25.10;76.40
12039;DHT22;6080;48.818;9.526;2023-05-20T16:07:50;25.50;76.90
12039;DHT22;6080;48.818;9.526;2023-05-20T16:10:17;26.00;76.00
12039;DHT22;6080;48.818;9.526;2023-05-20T16:12:43;26.40;74.40
12039;DHT22;6080;48.818;9.526;2023-05-20T16:15:10;26.60;75.00
12039;DHT22;6080;48.818;9.526;2023-05-20T16:17:36;26.80;74.80
12039;DHT22;6080;48.818;9.526;2023-05-20T16:20:02;27.30;74.50
12039;DHT22;6080;48.818;9.526;2023-05-20T16:22:32;27.70;74.00
12039;DHT22;6080;48.818;9.526;2023-05-20T16:24:58;27.90;72.00
12039;DHT22;6080;48.818;9.526;2023-05-20T16:27:24;27.80;72.00
12039;DHT22;6080;48.818;9.526;2023-05-20T16:29:50;28.00;71.80
12039;DHT22;6080;48.818;9.526;2023-05-20T16:32:16;28.20;71.20
12039;DHT22;6080;48.818;9.526;2023-05-20T16:34:42;27.60;70.80
12039;DHT22;6080;48.818;9.526;2023-05-20T16:37:07;27.00;71.50
12039;DHT22;6080;48.818;9.526;2023-05-20T16:39:35;26.60;73.40
12039;DHT22;6080;48.818;9.526;2023-05-20T16:42:00;26.50;73.90
12039;DHT22;6080;48.818;9.526;2023-05-20T16:44:27;26.30;74.80
12039;DHT22;6080;48.818;9.526;2023-05-20T16:46:52;26.30;74.80
12039;DHT22;6080;48.818;9.526;2023-05-20T16:49:18;26.10;75.40
12039;DHT22;6080;48.818;9.526;2023-05-20T16:51:44;26.20;75.50
12039;DHT22;6080;48.818;9.526;2023-05-20T16:54:11;26.00;75.10
12039;DHT22;6080;48.818;9.526;2023-05-20T16:56:36;25.50;76.60
12039;DHT22;6080;48.818;9.526;2023-05-20T16:59:02;25.40;78.00
12039;DHT22;6080;48.818;9.526;2023-05-20T17:01:28;25.50;78.40
12039;DHT22;6080;48.818;9.526;2023-05-20T17:03:54;25.60;77.60
12039;DHT22;6080;48.818;9.526;2023-05-20T17:06:19;25.40;76.00
12039;DHT22;6080;48.818;9.526;2023-05-20T17:08:45;25.10;77.10
12039;DHT22;6080;48.818;9.526;2023-05-20T17:11:11;25.10;76.70
12039;DHT22;6080;48.818;9.526;2023-05-20T17:13:37;25.10;77.20
12039;DHT22;6080;48.818;9.526;2023-05-20T17:16:03;25.00;77.60
12039;DHT22;6080;48.818;9.526;2023-05-20T17:18:28;25.00;76.80
12039;DHT22;6080;48.818;9.526;2023-05-20T17:20:54;24.90;76.70
12039;DHT22;6080;48.818;9.526;2023-05-20T17:23:20;24.70;77.30
12039;DHT22;6080;48.818;9.526;2023-05-20T17:25:46;24.70;77.50
12039;DHT22;6080;48.818;9.526;2023-05-20T17:28:11;24.60;78.10
12039;DHT22;6080;48.818;9.526;2023-05-20T17:30:37;24.60;78.80
12039;DHT22;6080;48.818;9.526;2023-05-20T17:33:03;24.60;78.70
12039;DHT22;6080;48.818;9.526;2023-05-20T17:35:28;24.50;79.50
12039;DHT22;6080;48.818;9.526;2023-05-20T17:37:56;24.30;80.20
12039;DHT22;6080;48.818;9.526;2023-05-20T17:40:21;24.10;80.70
12039;DHT22;6080;48.818;9.526;2023-05-20T17:42:47;24.00;81.30
12039;DHT22;6080;48.818;9.526;2023-05-20T17:45:13;24.00;81.80
12039;DHT22;6080;48.818;9.526;2023-05-20T17:47:39;24.00;82.70
12039;DHT22;6080;48.818;9.526;2023-05-20T17:50:06;23.90;82.50
12039;DHT22;6080;48.818;9.526;2023-05-20T17:52:31;23.90;82.70
12039;DHT22;6080;48.818;9.526;2023-05-20T17:54:57;23.70;84.00
12039;DHT22;6080;48.818;9.526;2023-05-20T17:57:23;23.70;83.60
12039;DHT22;6080;48.818;9.526;2023-05-20T17:59:49;23.60;83.60
12039;DHT22;6080;48.818;9.526;2023-05-20T18:02:15;23.60;83.80
12039;DHT22;6080;48.818;9.526;2023-05-20T18:04:41;23.50;84.60
12039;DHT22;6080;48.818;9.526;2023-05-20T18:07:06;23.50;84.60
12039;DHT22;6080;48.818;9.526;2023-05-20T18:09:32;23.40;84.90
12039;DHT22;6080;48.818;9.526;2023-05-20T18:11:58;23.40;84.70
12039;DHT22;6080;48.818;9.526;2023-05-20T18:14:24;23.30;84.60
12039;DHT22;6080;48.818;9.526;2023-05-20T18:16:51;23.30;85.20
12039;DHT22;6080;48.818;9.526;2023-05-20T18:19:19;23.20;85.20
12039;DHT22;6080;48.818;9.526;2023-05-20T18:21:45;23.10;85.30
12039;DHT22;6080;48.818;9.526;2023-05-20T18:24:10;23.00;86.00
12039;DHT22;6080;48.818;9.526;2023-05-20T18:26:38;22.90;87.40
12039;DHT22;6080;48.818;9.526;2023-05-20T18:29:04;22.90;87.50
12039;DHT22;6080;48.818;9.526;2023-05-20T18:31:30;22.80;87.90
12039;DHT22;6080;48.818;9.526;2023-05-20T18:33:56;22.70;88.30
12039;DHT22;6080;48.818;9.526;2023-05-20T18:36:23;22.70;89.70
12039;DHT22;6080;48.818;9.526;2023-05-20T18:38:48;22.60;89.90
12039;DHT22;6080;48.818;9.526;2023-05-20T18:41:14;22.50;90.10
12039;DHT22;6080;48.818;9.526;2023-05-20T18:43:40;22.50;90.50
12039;DHT22;6080;48.818;9.526;2023-05-20T18:46:06;22.40;90.70
12039;DHT22;6080;48.818;9.526;2023-05-20T18:48:32;22.30;91.30